Carlsbad, CA

5:49 PM PST on February 10, 2016 (GMT -0800)
McClellan-Palomar | | Change Station
CLOSE
Current Station
Airport
Location: Carlsbad,
Elevation: 328 ft
Nearby Weather Stations

Elev 328 ft 33.13 °N, 117.28 °W | Updated 56 minutes ago

Clear
Clear
76 °F
Feels Like 76 °F
N
5
Wind Variable Wind from WSW

Today
High -- | Low -- °F
--% Chance of Precip.
Yesterday
High -- | Low -- °F
Precip. -- in
Pressure 30.06 in
Visibility 10.0 miles
Clouds Clear
Dew Point 33 °F
Humidity 21%
Rainfall 0.00 in
Snow Depth Not available.
6:37 AM 5:29 PM
Waxing Crescent, 8% visible
METAR KCRQ 110053Z AUTO 25004KT 10SM CLR 24/01 A3007 RMK AO2 SLP179 T02440006
Pressure 30.06 in
Visibility 10.0 miles
Clouds Clear
Dew Point 33 °F
Humidity 21%
Rainfall 0.00 in
Snow Depth Not available.
6:37 AM 5:29 PM
Waxing Crescent, 8% visible
METAR KCRQ 110053Z AUTO 25004KT 10SM CLR 24/01 A3007 RMK AO2 SLP179 T02440006

10-Day Weather Forecast

Almanac

Astronomy

Feb. 10, 2016 Rise Set
Actual Time
Civil Twilight
Nautical Twilight
Astronomical Twilight
Moon
Length of Visible Light
Length of Day
Tomorrow will be .
, % of the Moon is Illuminated

Today's Extremes

State Highs State Lows

Community

WunderPhotos

Upload Photos

1,891,970 photos uploaded!

WunderBlog® & News

Nearby

Air Quality

  Air Quality AQ Index Pollutant
Not available.

Snow Depth

Station Depth Elevation

Earthquake Activity

City Distance Mag. Time & Date
Minimum magnitude displayed is 2.5.

Coastal Water Temperatures

Place Temperature

Stations

Nearby Weather Stations

Station Location Temp. Windchill Dew Point Humidity Wind Precip. Elev Updated Type
                   

Watches & Warnings

There are currently no watches in effect.